sensor_id;sensor_type;location;lat;lon;timestamp;P1;durP1;ratioP1;P2;durP2;ratioP2
20393;SDS011;10356;50.544;9.642;2023-04-24T00:01:19;2.13;;;1.92;;
20393;SDS011;10356;50.544;9.642;2023-04-24T00:03:45;3.55;;;2.05;;
20393;SDS011;10356;50.544;9.642;2023-04-24T00:06:12;6.10;;;2.10;;
20393;SDS011;10356;50.544;9.642;2023-04-24T00:08:38;5.38;;;2.03;;
20393;SDS011;10356;50.544;9.642;2023-04-24T00:11:05;5.25;;;2.20;;
20393;SDS011;10356;50.544;9.642;2023-04-24T00:13:33;4.57;;;2.05;;
20393;SDS011;10356;50.544;9.642;2023-04-24T00:15:59;4.22;;;1.67;;
20393;SDS011;10356;50.544;9.642;2023-04-24T00:18:26;3.05;;;1.50;;
20393;SDS011;10356;50.544;9.642;2023-04-24T00:20:52;3.83;;;1.80;;
20393;SDS011;10356;50.544;9.642;2023-04-24T00:23:19;3.35;;;1.80;;
20393;SDS011;10356;50.544;9.642;2023-04-24T00:25:45;2.90;;;2.30;;
20393;SDS011;10356;50.544;9.642;2023-04-24T00:28:12;3.25;;;1.60;;
20393;SDS011;10356;50.544;9.642;2023-04-24T00:30:39;3.70;;;1.73;;
20393;SDS011;10356;50.544;9.642;2023-04-24T00:33:06;2.60;;;1.60;;
20393;SDS011;10356;50.544;9.642;2023-04-24T00:35:32;1.50;;;1.40;;
20393;SDS011;10356;50.544;9.642;2023-04-24T00:37:59;2.88;;;1.38;;
20393;SDS011;10356;50.544;9.642;2023-04-24T00:40:26;2.85;;;1.60;;
20393;SDS011;10356;50.544;9.642;2023-04-24T00:42:53;1.93;;;1.60;;
20393;SDS011;10356;50.544;9.642;2023-04-24T00:45:19;2.38;;;1.42;;
20393;SDS011;10356;50.544;9.642;2023-04-24T00:47:47;3.30;;;1.40;;
20393;SDS011;10356;50.544;9.642;2023-04-24T00:50:14;4.28;;;1.67;;
20393;SDS011;10356;50.544;9.642;2023-04-24T00:52:42;3.72;;;1.65;;
20393;SDS011;10356;50.544;9.642;2023-04-24T00:55:09;2.78;;;1.80;;
20393;SDS011;10356;50.544;9.642;2023-04-24T00:57:35;2.22;;;1.73;;
20393;SDS011;10356;50.544;9.642;2023-04-24T01:00:02;2.42;;;1.70;;
20393;SDS011;10356;50.544;9.642;2023-04-24T01:02:32;3.72;;;2.00;;
20393;SDS011;10356;50.544;9.642;2023-04-24T01:05:01;1.83;;;1.50;;
20393;SDS011;10356;50.544;9.642;2023-04-24T01:07:28;2.75;;;1.55;;
20393;SDS011;10356;50.544;9.642;2023-04-24T01:09:55;4.80;;;2.00;;
20393;SDS011;10356;50.544;9.642;2023-04-24T01:12:21;4.70;;;1.80;;
20393;SDS011;10356;50.544;9.642;2023-04-24T01:14:48;2.45;;;1.38;;
20393;SDS011;10356;50.544;9.642;2023-04-24T01:17:15;3.03;;;1.50;;
20393;SDS011;10356;50.544;9.642;2023-04-24T01:19:41;3.88;;;1.50;;
20393;SDS011;10356;50.544;9.642;2023-04-24T01:22:11;2.50;;;2.03;;
20393;SDS011;10356;50.544;9.642;2023-04-24T01:24:39;3.33;;;1.88;;
20393;SDS011;10356;50.544;9.642;2023-04-24T01:27:06;3.38;;;1.63;;
20393;SDS011;10356;50.544;9.642;2023-04-24T01:29:34;5.15;;;1.70;;
20393;SDS011;10356;50.544;9.642;2023-04-24T01:32:01;3.63;;;1.50;;
20393;SDS011;10356;50.544;9.642;2023-04-24T01:34:28;3.42;;;1.55;;
20393;SDS011;10356;50.544;9.642;2023-04-24T01:36:55;3.90;;;1.70;;
20393;SDS011;10356;50.544;9.642;2023-04-24T01:39:23;3.03;;;1.83;;
20393;SDS011;10356;50.544;9.642;2023-04-24T01:41:50;2.47;;;1.63;;
20393;SDS011;10356;50.544;9.642;2023-04-24T01:44:17;2.13;;;1.25;;
20393;SDS011;10356;50.544;9.642;2023-04-24T01:46:44;2.90;;;1.48;;
20393;SDS011;10356;50.544;9.642;2023-04-24T01:49:11;2.33;;;1.60;;
20393;SDS011;10356;50.544;9.642;2023-04-24T01:51:37;2.33;;;1.45;;
20393;SDS011;10356;50.544;9.642;2023-04-24T01:54:04;2.92;;;1.50;;
20393;SDS011;10356;50.544;9.642;2023-04-24T01:56:33;3.20;;;1.80;;
20393;SDS011;10356;50.544;9.642;2023-04-24T01:59:00;3.28;;;1.55;;
20393;SDS011;10356;50.544;9.642;2023-04-24T02:01:33;1.63;;;1.00;;
20393;SDS011;10356;50.544;9.642;2023-04-24T02:04:00;4.15;;;1.25;;
20393;SDS011;10356;50.544;9.642;2023-04-24T02:06:27;1.10;;;1.00;;
20393;SDS011;10356;50.544;9.642;2023-04-24T02:08:53;3.15;;;1.05;;
20393;SDS011;10356;50.544;9.642;2023-04-24T02:11:20;3.13;;;1.08;;
20393;SDS011;10356;50.544;9.642;2023-04-24T02:13:48;3.60;;;1.15;;
20393;SDS011;10356;50.544;9.642;2023-04-24T02:16:15;1.17;;;1.00;;
20393;SDS011;10356;50.544;9.642;2023-04-24T02:18:41;2.75;;;1.20;;
20393;SDS011;10356;50.544;9.642;2023-04-24T02:21:08;4.78;;;1.35;;
20393;SDS011;10356;50.544;9.642;2023-04-24T02:23:34;3.38;;;1.30;;
20393;SDS011;10356;50.544;9.642;2023-04-24T02:26:01;3.38;;;1.10;;
20393;SDS011;10356;50.544;9.642;2023-04-24T02:28:27;2.78;;;1.27;;
20393;SDS011;10356;50.544;9.642;2023-04-24T02:30:55;1.23;;;0.90;;
20393;SDS011;10356;50.544;9.642;2023-04-24T02:33:22;2.30;;;0.80;;
20393;SDS011;10356;50.544;9.642;2023-04-24T02:35:48;1.30;;;1.00;;
20393;SDS011;10356;50.544;9.642;2023-04-24T02:38:15;4.55;;;1.10;;
20393;SDS011;10356;50.544;9.642;2023-04-24T02:40:41;3.72;;;1.00;;
20393;SDS011;10356;50.544;9.642;2023-04-24T02:43:08;2.13;;;0.93;;
20393;SDS011;10356;50.544;9.642;2023-04-24T02:45:34;1.58;;;0.90;;
20393;SDS011;10356;50.544;9.642;2023-04-24T02:48:02;1.98;;;0.98;;
20393;SDS011;10356;50.544;9.642;2023-04-24T02:50:29;2.35;;;0.93;;
20393;SDS011;10356;50.544;9.642;2023-04-24T02:52:55;2.92;;;1.20;;
20393;SDS011;10356;50.544;9.642;2023-04-24T02:55:22;2.20;;;1.20;;
20393;SDS011;10356;50.544;9.642;2023-04-24T02:57:48;1.83;;;0.95;;
20393;SDS011;10356;50.544;9.642;2023-04-24T03:00:15;1.73;;;1.00;;
20393;SDS011;10356;50.544;9.642;2023-04-24T03:02:41;5.70;;;1.23;;
20393;SDS011;10356;50.544;9.642;2023-04-24T03:05:10;2.50;;;1.48;;
20393;SDS011;10356;50.544;9.642;2023-04-24T03:07:37;3.10;;;0.93;;
20393;SDS011;10356;50.544;9.642;2023-04-24T03:10:04;2.17;;;1.10;;
20393;SDS011;10356;50.544;9.642;2023-04-24T03:12:32;1.10;;;0.90;;
20393;SDS011;10356;50.544;9.642;2023-04-24T03:14:58;3.85;;;1.55;;
20393;SDS011;10356;50.544;9.642;2023-04-24T03:17:24;2.22;;;1.23;;
20393;SDS011;10356;50.544;9.642;2023-04-24T03:19:51;2.00;;;1.05;;
20393;SDS011;10356;50.544;9.642;2023-04-24T03:22:19;4.28;;;1.10;;
20393;SDS011;10356;50.544;9.642;2023-04-24T03:24:46;1.80;;;1.10;;
20393;SDS011;10356;50.544;9.642;2023-04-24T03:27:13;4.25;;;1.20;;
20393;SDS011;10356;50.544;9.642;2023-04-24T03:29:39;2.60;;;1.27;;
20393;SDS011;10356;50.544;9.642;2023-04-24T03:32:06;2.92;;;0.93;;
20393;SDS011;10356;50.544;9.642;2023-04-24T03:34:32;5.65;;;3.88;;
20393;SDS011;10356;50.544;9.642;2023-04-24T03:36:58;4.43;;;3.03;;
20393;SDS011;10356;50.544;9.642;2023-04-24T03:39:26;9.27;;;6.70;;
20393;SDS011;10356;50.544;9.642;2023-04-24T03:41:53;35.30;;;18.73;;
20393;SDS011;10356;50.544;9.642;2023-04-24T03:44:20;20.42;;;11.60;;
20393;SDS011;10356;50.544;9.642;2023-04-24T03:46:46;57.13;;;31.63;;
20393;SDS011;10356;50.544;9.642;2023-04-24T03:49:13;66.70;;;37.72;;
20393;SDS011;10356;50.544;9.642;2023-04-24T03:51:39;12.32;;;7.88;;
20393;SDS011;10356;50.544;9.642;2023-04-24T03:54:05;27.98;;;19.88;;
20393;SDS011;10356;50.544;9.642;2023-04-24T03:56:33;4.10;;;2.00;;
20393;SDS011;10356;50.544;9.642;2023-04-24T03:59:00;13.55;;;10.23;;
20393;SDS011;10356;50.544;9.642;2023-04-24T04:01:27;5.78;;;2.08;;
20393;SDS011;10356;50.544;9.642;2023-04-24T04:03:54;4.60;;;2.13;;
20393;SDS011;10356;50.544;9.642;2023-04-24T04:06:20;1.35;;;1.10;;
20393;SDS011;10356;50.544;9.642;2023-04-24T04:08:47;2.50;;;1.20;;
20393;SDS011;10356;50.544;9.642;2023-04-24T04:11:14;1.73;;;0.95;;
20393;SDS011;10356;50.544;9.642;2023-04-24T04:13:42;2.83;;;1.25;;
20393;SDS011;10356;50.544;9.642;2023-04-24T04:16:08;2.95;;;1.00;;
20393;SDS011;10356;50.544;9.642;2023-04-24T04:18:35;1.65;;;1.17;;
20393;SDS011;10356;50.544;9.642;2023-04-24T04:21:01;2.28;;;0.90;;
20393;SDS011;10356;50.544;9.642;2023-04-24T04:23:28;2.10;;;0.98;;
20393;SDS011;10356;50.544;9.642;2023-04-24T04:25:54;2.42;;;1.00;;
20393;SDS011;10356;50.544;9.642;2023-04-24T04:28:21;1.55;;;0.93;;
20393;SDS011;10356;50.544;9.642;2023-04-24T04:30:48;3.47;;;1.00;;
20393;SDS011;10356;50.544;9.642;2023-04-24T04:33:18;3.50;;;1.10;;
20393;SDS011;10356;50.544;9.642;2023-04-24T04:35:45;2.42;;;1.15;;
20393;SDS011;10356;50.544;9.642;2023-04-24T04:38:13;1.83;;;1.20;;
20393;SDS011;10356;50.544;9.642;2023-04-24T04:40:40;2.17;;;1.20;;
20393;SDS011;10356;50.544;9.642;2023-04-24T04:43:07;3.05;;;1.20;;
20393;SDS011;10356;50.544;9.642;2023-04-24T04:45:33;4.40;;;1.50;;
20393;SDS011;10356;50.544;9.642;2023-04-24T04:48:01;2.40;;;1.65;;
20393;SDS011;10356;50.544;9.642;2023-04-24T04:50:28;3.03;;;1.40;;
20393;SDS011;10356;50.544;9.642;2023-04-24T04:52:55;3.22;;;1.30;;
20393;SDS011;10356;50.544;9.642;2023-04-24T04:55:21;2.45;;;1.42;;
20393;SDS011;10356;50.544;9.642;2023-04-24T04:57:48;2.88;;;1.70;;
20393;SDS011;10356;50.544;9.642;2023-04-24T05:00:15;4.97;;;3.40;;
20393;SDS011;10356;50.544;9.642;2023-04-24T05:02:41;6.80;;;3.80;;
20393;SDS011;10356;50.544;9.642;2023-04-24T05:05:09;3.63;;;1.88;;
20393;SDS011;10356;50.544;9.642;2023-04-24T05:07:36;1.80;;;1.42;;
20393;SDS011;10356;50.544;9.642;2023-04-24T05:10:03;2.25;;;1.27;;
20393;SDS011;10356;50.544;9.642;2023-04-24T05:12:30;4.57;;;1.98;;
20393;SDS011;10356;50.544;9.642;2023-04-24T05:14:56;4.82;;;3.08;;
20393;SDS011;10356;50.544;9.642;2023-04-24T05:17:23;3.50;;;2.60;;
20393;SDS011;10356;50.544;9.642;2023-04-24T05:19:49;1.48;;;1.20;;
20393;SDS011;10356;50.544;9.642;2023-04-24T05:22:17;1.25;;;1.15;;
20393;SDS011;10356;50.544;9.642;2023-04-24T05:24:45;1.20;;;1.10;;
20393;SDS011;10356;50.544;9.642;2023-04-24T05:27:12;1.05;;;0.95;;
20393;SDS011;10356;50.544;9.642;2023-04-24T05:29:39;1.35;;;1.23;;
20393;SDS011;10356;50.544;9.642;2023-04-24T05:32:06;1.20;;;1.00;;
20393;SDS011;10356;50.544;9.642;2023-04-24T05:34:32;1.83;;;1.20;;
20393;SDS011;10356;50.544;9.642;2023-04-24T05:36:59;1.95;;;1.40;;
20393;SDS011;10356;50.544;9.642;2023-04-24T05:39:26;1.30;;;1.20;;
20393;SDS011;10356;50.544;9.642;2023-04-24T05:41:53;1.80;;;1.40;;
20393;SDS011;10356;50.544;9.642;2023-04-24T05:44:20;4.22;;;1.70;;
20393;SDS011;10356;50.544;9.642;2023-04-24T05:46:46;2.58;;;1.20;;
20393;SDS011;10356;50.544;9.642;2023-04-24T05:49:13;1.90;;;1.60;;
20393;SDS011;10356;50.544;9.642;2023-04-24T05:51:39;2.20;;;1.25;;
20393;SDS011;10356;50.544;9.642;2023-04-24T05:54:06;1.35;;;1.20;;
20393;SDS011;10356;50.544;9.642;2023-04-24T05:56:34;2.70;;;1.60;;
20393;SDS011;10356;50.544;9.642;2023-04-24T05:59:00;2.30;;;1.27;;
20393;SDS011;10356;50.544;9.642;2023-04-24T06:01:27;1.75;;;1.15;;
20393;SDS011;10356;50.544;9.642;2023-04-24T06:03:54;2.60;;;1.50;;
20393;SDS011;10356;50.544;9.642;2023-04-24T06:06:21;2.22;;;1.70;;
20393;SDS011;10356;50.544;9.642;2023-04-24T06:08:47;1.63;;;1.52;;
20393;SDS011;10356;50.544;9.642;2023-04-24T06:11:14;6.82;;;5.70;;
20393;SDS011;10356;50.544;9.642;2023-04-24T06:13:42;1.50;;;1.20;;
20393;SDS011;10356;50.544;9.642;2023-04-24T06:16:08;3.10;;;1.80;;
20393;SDS011;10356;50.544;9.642;2023-04-24T06:18:36;2.13;;;1.10;;
20393;SDS011;10356;50.544;9.642;2023-04-24T06:21:03;1.20;;;1.10;;
20393;SDS011;10356;50.544;9.642;2023-04-24T06:23:30;2.20;;;1.33;;
20393;SDS011;10356;50.544;9.642;2023-04-24T06:25:57;2.13;;;1.17;;
20393;SDS011;10356;50.544;9.642;2023-04-24T06:28:24;2.55;;;1.75;;
20393;SDS011;10356;50.544;9.642;2023-04-24T06:30:52;2.20;;;2.10;;
20393;SDS011;10356;50.544;9.642;2023-04-24T06:33:18;5.22;;;4.72;;
20393;SDS011;10356;50.544;9.642;2023-04-24T06:35:45;5.57;;;4.40;;
20393;SDS011;10356;50.544;9.642;2023-04-24T06:38:11;31.80;;;23.60;;
20393;SDS011;10356;50.544;9.642;2023-04-24T06:40:38;15.18;;;10.48;;
20393;SDS011;10356;50.544;9.642;2023-04-24T06:43:05;15.27;;;12.40;;
20393;SDS011;10356;50.544;9.642;2023-04-24T06:45:31;6.78;;;3.80;;
20393;SDS011;10356;50.544;9.642;2023-04-24T06:47:59;1.88;;;1.70;;
20393;SDS011;10356;50.544;9.642;2023-04-24T06:50:26;2.28;;;1.48;;
20393;SDS011;10356;50.544;9.642;2023-04-24T06:52:52;1.98;;;1.35;;
20393;SDS011;10356;50.544;9.642;2023-04-24T06:55:18;5.32;;;3.22;;
20393;SDS011;10356;50.544;9.642;2023-04-24T06:57:45;4.43;;;1.13;;
20393;SDS011;10356;50.544;9.642;2023-04-24T07:00:12;3.95;;;2.00;;
20393;SDS011;10356;50.544;9.642;2023-04-24T07:02:39;1.55;;;1.38;;
20393;SDS011;10356;50.544;9.642;2023-04-24T07:05:07;2.00;;;1.70;;
20393;SDS011;10356;50.544;9.642;2023-04-24T07:07:34;1.70;;;1.60;;
20393;SDS011;10356;50.544;9.642;2023-04-24T07:10:02;2.67;;;1.70;;
20393;SDS011;10356;50.544;9.642;2023-04-24T07:12:29;2.13;;;1.40;;
20393;SDS011;10356;50.544;9.642;2023-04-24T07:14:56;1.50;;;1.30;;
20393;SDS011;10356;50.544;9.642;2023-04-24T07:17:23;3.67;;;1.60;;
20393;SDS011;10356;50.544;9.642;2023-04-24T07:19:49;1.38;;;1.27;;
20393;SDS011;10356;50.544;9.642;2023-04-24T07:22:17;2.70;;;1.42;;
20393;SDS011;10356;50.544;9.642;2023-04-24T07:24:44;1.80;;;1.70;;
20393;SDS011;10356;50.544;9.642;2023-04-24T07:27:10;1.98;;;1.45;;
20393;SDS011;10356;50.544;9.642;2023-04-24T07:29:39;1.50;;;1.40;;
20393;SDS011;10356;50.544;9.642;2023-04-24T07:32:06;2.40;;;1.45;;
20393;SDS011;10356;50.544;9.642;2023-04-24T07:34:32;3.20;;;1.98;;
20393;SDS011;10356;50.544;9.642;2023-04-24T07:36:59;3.42;;;1.45;;
20393;SDS011;10356;50.544;9.642;2023-04-24T07:39:27;2.03;;;1.70;;
20393;SDS011;10356;50.544;9.642;2023-04-24T07:41:54;1.88;;;1.75;;
20393;SDS011;10356;50.544;9.642;2023-04-24T07:44:20;2.63;;;1.70;;
20393;SDS011;10356;50.544;9.642;2023-04-24T07:46:47;4.15;;;2.05;;
20393;SDS011;10356;50.544;9.642;2023-04-24T07:49:13;3.72;;;2.10;;
20393;SDS011;10356;50.544;9.642;2023-04-24T07:51:40;3.72;;;2.38;;
20393;SDS011;10356;50.544;9.642;2023-04-24T07:54:06;3.25;;;2.53;;
20393;SDS011;10356;50.544;9.642;2023-04-24T07:56:34;2.88;;;2.67;;
20393;SDS011;10356;50.544;9.642;2023-04-24T07:59:03;3.05;;;2.75;;
20393;SDS011;10356;50.544;9.642;2023-04-24T08:01:30;3.60;;;2.97;;
20393;SDS011;10356;50.544;9.642;2023-04-24T08:03:56;3.58;;;2.90;;
20393;SDS011;10356;50.544;9.642;2023-04-24T08:06:23;4.93;;;3.13;;
20393;SDS011;10356;50.544;9.642;2023-04-24T08:08:52;3.88;;;3.17;;
20393;SDS011;10356;50.544;9.642;2023-04-24T08:11:19;5.72;;;3.40;;
20393;SDS011;10356;50.544;9.642;2023-04-24T08:13:47;4.90;;;3.53;;
20393;SDS011;10356;50.544;9.642;2023-04-24T08:16:13;5.30;;;3.83;;
20393;SDS011;10356;50.544;9.642;2023-04-24T08:18:40;3.55;;;3.25;;
20393;SDS011;10356;50.544;9.642;2023-04-24T08:21:06;5.43;;;4.13;;
20393;SDS011;10356;50.544;9.642;2023-04-24T08:23:33;3.90;;;3.50;;
20393;SDS011;10356;50.544;9.642;2023-04-24T08:25:59;4.80;;;3.47;;
20393;SDS011;10356;50.544;9.642;2023-04-24T08:28:26;4.38;;;3.30;;
20393;SDS011;10356;50.544;9.642;2023-04-24T08:30:54;3.38;;;3.03;;
20393;SDS011;10356;50.544;9.642;2023-04-24T08:33:21;4.50;;;2.92;;
20393;SDS011;10356;50.544;9.642;2023-04-24T08:35:48;4.13;;;3.70;;
20393;SDS011;10356;50.544;9.642;2023-04-24T08:38:15;4.20;;;3.80;;
20393;SDS011;10356;50.544;9.642;2023-04-24T08:40:41;4.30;;;3.50;;
20393;SDS011;10356;50.544;9.642;2023-04-24T08:43:10;4.63;;;3.88;;
20393;SDS011;10356;50.544;9.642;2023-04-24T08:45:39;4.63;;;4.10;;
20393;SDS011;10356;50.544;9.642;2023-04-24T08:48:07;4.88;;;3.38;;
20393;SDS011;10356;50.544;9.642;2023-04-24T08:50:35;3.72;;;3.08;;
20393;SDS011;10356;50.544;9.642;2023-04-24T08:53:03;3.90;;;3.17;;
20393;SDS011;10356;50.544;9.642;2023-04-24T08:55:30;4.97;;;3.60;;
20393;SDS011;10356;50.544;9.642;2023-04-24T08:57:59;3.83;;;3.15;;
20393;SDS011;10356;50.544;9.642;2023-04-24T09:00:28;4.35;;;2.30;;
20393;SDS011;10356;50.544;9.642;2023-04-24T09:02:55;3.95;;;2.20;;
20393;SDS011;10356;50.544;9.642;2023-04-24T09:05:23;2.92;;;2.60;;
20393;SDS011;10356;50.544;9.642;2023-04-24T09:07:53;3.80;;;2.13;;
20393;SDS011;10356;50.544;9.642;2023-04-24T09:10:21;3.45;;;2.42;;
20393;SDS011;10356;50.544;9.642;2023-04-24T09:12:49;3.55;;;2.53;;
20393;SDS011;10356;50.544;9.642;2023-04-24T09:15:16;3.40;;;2.63;;
20393;SDS011;10356;50.544;9.642;2023-04-24T09:17:43;3.25;;;2.13;;
20393;SDS011;10356;50.544;9.642;2023-04-24T09:20:10;2.97;;;1.90;;
20393;SDS011;10356;50.544;9.642;2023-04-24T09:22:38;2.92;;;2.10;;
20393;SDS011;10356;50.544;9.642;2023-04-24T09:25:05;2.10;;;1.75;;
20393;SDS011;10356;50.544;9.642;2023-04-24T09:27:33;3.63;;;1.90;;
20393;SDS011;10356;50.544;9.642;2023-04-24T09:30:00;4.53;;;2.03;;
20393;SDS011;10356;50.544;9.642;2023-04-24T09:32:28;3.35;;;2.08;;
20393;SDS011;10356;50.544;9.642;2023-04-24T09:35:06;1.98;;;1.70;;
20393;SDS011;10356;50.544;9.642;2023-04-24T09:37:35;4.00;;;2.63;;
20393;SDS011;10356;50.544;9.642;2023-04-24T09:40:10;2.40;;;2.17;;
20393;SDS011;10356;50.544;9.642;2023-04-24T09:42:38;2.47;;;2.08;;
20393;SDS011;10356;50.544;9.642;2023-04-24T09:45:08;4.80;;;3.20;;
20393;SDS011;10356;50.544;9.642;2023-04-24T09:47:36;3.90;;;2.83;;
20393;SDS011;10356;50.544;9.642;2023-04-24T09:50:09;3.30;;;3.00;;
20393;SDS011;10356;50.544;9.642;2023-04-24T09:52:37;2.40;;;2.20;;
20393;SDS011;10356;50.544;9.642;2023-04-24T09:55:11;4.45;;;3.53;;
20393;SDS011;10356;50.544;9.642;2023-04-24T09:57:46;2.67;;;2.47;;
20393;SDS011;10356;50.544;9.642;2023-04-24T10:00:16;2.70;;;2.50;;
20393;SDS011;10356;50.544;9.642;2023-04-24T10:02:44;2.92;;;2.67;;
20393;SDS011;10356;50.544;9.642;2023-04-24T10:05:11;4.30;;;2.60;;
20393;SDS011;10356;50.544;9.642;2023-04-24T10:07:37;3.45;;;2.67;;
20393;SDS011;10356;50.544;9.642;2023-04-24T10:10:04;3.25;;;2.75;;
20393;SDS011;10356;50.544;9.642;2023-04-24T10:12:33;3.70;;;2.75;;
20393;SDS011;10356;50.544;9.642;2023-04-24T10:15:00;4.05;;;3.30;;
20393;SDS011;10356;50.544;9.642;2023-04-24T10:17:27;3.78;;;2.92;;
20393;SDS011;10356;50.544;9.642;2023-04-24T10:19:57;10.85;;;7.63;;
20393;SDS011;10356;50.544;9.642;2023-04-24T10:22:26;4.03;;;2.85;;
20393;SDS011;10356;50.544;9.642;2023-04-24T10:24:54;4.35;;;3.08;;
20393;SDS011;10356;50.544;9.642;2023-04-24T10:27:23;4.40;;;2.75;;
20393;SDS011;10356;50.544;9.642;2023-04-24T10:29:52;3.83;;;2.85;;
20393;SDS011;10356;50.544;9.642;2023-04-24T10:32:19;3.47;;;2.80;;
20393;SDS011;10356;50.544;9.642;2023-04-24T10:34:45;2.63;;;2.42;;
20393;SDS011;10356;50.544;9.642;2023-04-24T10:37:12;2.88;;;2.50;;
20393;SDS011;10356;50.544;9.642;2023-04-24T10:39:39;3.15;;;2.38;;
20393;SDS011;10356;50.544;9.642;2023-04-24T10:42:13;2.58;;;2.05;;
20393;SDS011;10356;50.544;9.642;2023-04-24T10:44:41;4.22;;;2.58;;
20393;SDS011;10356;50.544;9.642;2023-04-24T10:47:13;3.00;;;2.50;;
20393;SDS011;10356;50.544;9.642;2023-04-24T10:49:40;2.47;;;2.25;;
20393;SDS011;10356;50.544;9.642;2023-04-24T10:52:06;2.45;;;2.25;;
20393;SDS011;10356;50.544;9.642;2023-04-24T10:54:36;4.43;;;2.70;;
20393;SDS011;10356;50.544;9.642;2023-04-24T10:57:26;2.50;;;2.30;;
20393;SDS011;10356;50.544;9.642;2023-04-24T11:02:46;2.72;;;2.42;;
20393;SDS011;10356;50.544;9.642;2023-04-24T11:05:15;3.30;;;2.03;;
20393;SDS011;10356;50.544;9.642;2023-04-24T11:10:38;4.60;;;2.28;;
20393;SDS011;10356;50.544;9.642;2023-04-24T11:13:06;1.95;;;1.60;;
20393;SDS011;10356;50.544;9.642;2023-04-24T11:15:33;2.10;;;1.90;;
20393;SDS011;10356;50.544;9.642;2023-04-24T11:18:01;2.92;;;1.70;;
20393;SDS011;10356;50.544;9.642;2023-04-24T11:20:27;4.80;;;2.15;;
20393;SDS011;10356;50.544;9.642;2023-04-24T11:22:54;2.13;;;1.88;;
20393;SDS011;10356;50.544;9.642;2023-04-24T11:25:22;3.35;;;2.20;;
20393;SDS011;10356;50.544;9.642;2023-04-24T11:27:50;2.28;;;2.08;;
20393;SDS011;10356;50.544;9.642;2023-04-24T11:30:29;3.03;;;1.95;;
20393;SDS011;10356;50.544;9.642;2023-04-24T11:32:55;2.90;;;2.10;;
20393;SDS011;10356;50.544;9.642;2023-04-24T11:35:29;2.70;;;2.50;;
20393;SDS011;10356;50.544;9.642;2023-04-24T11:38:02;4.70;;;3.72;;
20393;SDS011;10356;50.544;9.642;2023-04-24T11:40:30;4.15;;;2.70;;
20393;SDS011;10356;50.544;9.642;2023-04-24T11:42:59;3.72;;;3.00;;
20393;SDS011;10356;50.544;9.642;2023-04-24T11:45:26;2.88;;;2.45;;
20393;SDS011;10356;50.544;9.642;2023-04-24T11:47:53;3.90;;;2.63;;
20393;SDS011;10356;50.544;9.642;2023-04-24T11:50:22;2.70;;;2.50;;
20393;SDS011;10356;50.544;9.642;2023-04-24T11:52:50;2.92;;;2.17;;
20393;SDS011;10356;50.544;9.642;2023-04-24T11:55:24;2.40;;;2.00;;
20393;SDS011;10356;50.544;9.642;2023-04-24T11:57:52;3.50;;;1.70;;
20393;SDS011;10356;50.544;9.642;2023-04-24T12:00:22;1.50;;;1.15;;
20393;SDS011;10356;50.544;9.642;2023-04-24T12:02:50;1.10;;;1.00;;
20393;SDS011;10356;50.544;9.642;2023-04-24T12:05:21;1.98;;;1.00;;
20393;SDS011;10356;50.544;9.642;2023-04-24T12:07:49;1.58;;;0.95;;
20393;SDS011;10356;50.544;9.642;2023-04-24T12:10:19;1.42;;;0.93;;
20393;SDS011;10356;50.544;9.642;2023-04-24T12:12:46;2.25;;;1.10;;
20393;SDS011;10356;50.544;9.642;2023-04-24T12:15:15;1.60;;;1.00;;
20393;SDS011;10356;50.544;9.642;2023-04-24T12:17:42;1.60;;;0.95;;
20393;SDS011;10356;50.544;9.642;2023-04-24T12:20:09;1.48;;;0.68;;
20393;SDS011;10356;50.544;9.642;2023-04-24T12:22:44;1.38;;;0.80;;
20393;SDS011;10356;50.544;9.642;2023-04-24T12:25:12;0.88;;;0.77;;
20393;SDS011;10356;50.544;9.642;2023-04-24T12:27:39;2.10;;;0.90;;
20393;SDS011;10356;50.544;9.642;2023-04-24T12:30:09;1.02;;;0.80;;
20393;SDS011;10356;50.544;9.642;2023-04-24T12:32:40;0.70;;;0.70;;
20393;SDS011;10356;50.544;9.642;2023-04-24T12:35:07;0.60;;;0.60;;
20393;SDS011;10356;50.544;9.642;2023-04-24T12:37:34;1.15;;;0.60;;
20393;SDS011;10356;50.544;9.642;2023-04-24T12:40:03;0.45;;;0.45;;
20393;SDS011;10356;50.544;9.642;2023-04-24T12:42:31;0.98;;;0.50;;
20393;SDS011;10356;50.544;9.642;2023-04-24T12:44:59;0.20;;;0.20;;
20393;SDS011;10356;50.544;9.642;2023-04-24T12:47:27;0.47;;;0.40;;
20393;SDS011;10356;50.544;9.642;2023-04-24T12:49:54;0.40;;;0.40;;
20393;SDS011;10356;50.544;9.642;2023-04-24T12:52:21;0.30;;;0.30;;
20393;SDS011;10356;50.544;9.642;2023-04-24T12:54:48;2.05;;;0.68;;
20393;SDS011;10356;50.544;9.642;2023-04-24T12:57:16;0.30;;;0.30;;
20393;SDS011;10356;50.544;9.642;2023-04-24T12:59:43;0.40;;;0.30;;
20393;SDS011;10356;50.544;9.642;2023-04-24T13:02:10;0.50;;;0.47;;
20393;SDS011;10356;50.544;9.642;2023-04-24T13:04:36;1.30;;;0.90;;
20393;SDS011;10356;50.544;9.642;2023-04-24T13:07:03;6.40;;;2.70;;
20393;SDS011;10356;50.544;9.642;2023-04-24T13:09:31;1.20;;;0.85;;
20393;SDS011;10356;50.544;9.642;2023-04-24T13:11:58;1.05;;;0.30;;
20393;SDS011;10356;50.544;9.642;2023-04-24T13:14:27;0.40;;;0.40;;
20393;SDS011;10356;50.544;9.642;2023-04-24T13:16:53;2.33;;;1.00;;
20393;SDS011;10356;50.544;9.642;2023-04-24T13:19:20;0.20;;;0.20;;
20393;SDS011;10356;50.544;9.642;2023-04-24T13:21:46;0.30;;;0.30;;
20393;SDS011;10356;50.544;9.642;2023-04-24T13:24:13;0.50;;;0.35;;
20393;SDS011;10356;50.544;9.642;2023-04-24T13:26:40;2.08;;;0.63;;
20393;SDS011;10356;50.544;9.642;2023-04-24T13:29:07;0.82;;;0.30;;
20393;SDS011;10356;50.544;9.642;2023-04-24T13:31:35;0.60;;;0.55;;
20393;SDS011;10356;50.544;9.642;2023-04-24T13:34:01;1.48;;;0.40;;
20393;SDS011;10356;50.544;9.642;2023-04-24T13:36:28;0.93;;;0.50;;
20393;SDS011;10356;50.544;9.642;2023-04-24T13:38:55;0.65;;;0.50;;
20393;SDS011;10356;50.544;9.642;2023-04-24T13:41:21;1.33;;;0.40;;
20393;SDS011;10356;50.544;9.642;2023-04-24T13:43:48;0.63;;;0.40;;
20393;SDS011;10356;50.544;9.642;2023-04-24T13:46:15;0.55;;;0.30;;
20393;SDS011;10356;50.544;9.642;2023-04-24T13:48:44;0.40;;;0.40;;
20393;SDS011;10356;50.544;9.642;2023-04-24T13:51:10;0.30;;;0.30;;
20393;SDS011;10356;50.544;9.642;2023-04-24T13:53:36;0.40;;;0.40;;
20393;SDS011;10356;50.544;9.642;2023-04-24T13:56:03;0.60;;;0.60;;
20393;SDS011;10356;50.544;9.642;2023-04-24T13:58:30;1.90;;;0.60;;
20393;SDS011;10356;50.544;9.642;2023-04-24T14:00:57;0.50;;;0.47;;
20393;SDS011;10356;50.544;9.642;2023-04-24T14:03:23;1.67;;;0.50;;
20393;SDS011;10356;50.544;9.642;2023-04-24T14:05:51;0.82;;;0.70;;
20393;SDS011;10356;50.544;9.642;2023-04-24T14:08:18;0.93;;;0.52;;
20393;SDS011;10356;50.544;9.642;2023-04-24T14:10:44;1.23;;;0.80;;
20393;SDS011;10356;50.544;9.642;2023-04-24T14:13:11;1.48;;;0.70;;
20393;SDS011;10356;50.544;9.642;2023-04-24T14:15:38;1.50;;;1.00;;
20393;SDS011;10356;50.544;9.642;2023-04-24T14:18:04;1.50;;;1.00;;
20393;SDS011;10356;50.544;9.642;2023-04-24T14:20:31;1.88;;;1.15;;
20393;SDS011;10356;50.544;9.642;2023-04-24T14:22:59;2.33;;;1.20;;
20393;SDS011;10356;50.544;9.642;2023-04-24T14:25:25;2.13;;;1.20;;
20393;SDS011;10356;50.544;9.642;2023-04-24T14:27:52;1.63;;;1.13;;
20393;SDS011;10356;50.544;9.642;2023-04-24T14:30:18;6.13;;;1.10;;
20393;SDS011;10356;50.544;9.642;2023-04-24T14:32:45;1.95;;;1.20;;
20393;SDS011;10356;50.544;9.642;2023-04-24T14:35:12;2.88;;;1.73;;
20393;SDS011;10356;50.544;9.642;2023-04-24T14:37:39;2.85;;;1.80;;
20393;SDS011;10356;50.544;9.642;2023-04-24T14:40:09;3.20;;;1.70;;
20393;SDS011;10356;50.544;9.642;2023-04-24T14:42:36;2.67;;;1.88;;
20393;SDS011;10356;50.544;9.642;2023-04-24T14:45:06;2.53;;;1.90;;
20393;SDS011;10356;50.544;9.642;2023-04-24T14:47:33;2.30;;;1.98;;
20393;SDS011;10356;50.544;9.642;2023-04-24T14:50:00;2.90;;;2.08;;
20393;SDS011;10356;50.544;9.642;2023-04-24T14:52:26;2.45;;;2.25;;
20393;SDS011;10356;50.544;9.642;2023-04-24T14:54:53;2.83;;;2.08;;